Camargo, Illinois
Current Conditions -  °F | °C
As of 3:53 AM on Friday 31 Oct 2014 (Local Time) from KCMI Reporting Station
Overcast Overcast  
Wind Chill: 41°   Ceiling: 6000
Heat Index: 44°   Visibility: 7mi
Dew Point: 41°   Wind: 6mph
Humidity: 89%   Direction: 260°W
Pressure: 30.04"   Gusts: NA
Location:  39.8°N, 88.16°W
Report Text: KCMI 310853Z AUTO 26005KT 7SM OVC060 07/05 A3004 RMK AO2 SLP175 60000 T00670050 58004 $
Loading
Personal Weather Stations






























Interactive Weather Map
Tropical Storm Tracking
New forecast layout! Learn more

10-Day Weather Forecast

Advertisements
Track Severe Weather on mobile